Mocambique, Mozambique
Current Conditions -  °F | °C
As of 8:00 PM on Monday 22 Dec 2014 (Local Time) from FQNP Reporting Station
Scattered Clouds Scattered Clouds  
Wind Chill: 93°   Ceiling: Unl
Heat Index: 101°   Visibility: 6mi
Dew Point: 72°   Wind: 12mph
Humidity: 49%   Direction: 60°ENE
Pressure: 29.85"   Gusts: NA
Location:  15.04°S, 40.73°E
Report Text: FQNP 221800Z 06010KT 9999 SCT020 34/22 Q1011
Loading
Personal Weather Stations






























Interactive Weather Map New forecast layout! Learn more

10-Day Weather Forecast

Advertisements
Track Severe Weather on mobile